Terminal Aerodrome Forecast
Issued by NWS Paducah, KY

Home | Current Version | Previous Version | Text Only | Print | Product List | Glossary On
Versions: 1 2 3 4 5 6 7 8 9 10 11 12 13 14
000
FTUS43 KPAH 182300
TAFPAH
TAF
KPAH 182332Z 1900/1924 03003KT P6SM SKC
      TEMPO 1910/1913 00000KT 4SM BR
     FM191600 20003KT P6SM FEW250=

USA.gov is the U.S. government's official web portal to all federal, state and local government web resources and services.